createdAt,value
2023-04-23T00:01:45.858Z,2.75
2023-04-23T00:04:15.254Z,2.03
2023-04-23T00:06:43.098Z,2.30
2023-04-23T00:09:10.175Z,1.60
2023-04-23T00:11:37.058Z,3.13
2023-04-23T00:14:03.854Z,1.40
2023-04-23T00:16:30.866Z,2.42
2023-04-23T00:18:57.572Z,1.98
2023-04-23T00:21:24.251Z,2.97
2023-04-23T00:23:50.940Z,2.25
2023-04-23T00:26:18.535Z,2.70
2023-04-23T00:28:45.175Z,4.28
2023-04-23T00:31:11.784Z,2.10
2023-04-23T00:33:38.599Z,2.55
2023-04-23T00:36:06.071Z,2.53
2023-04-23T00:38:32.695Z,3.00
2023-04-23T00:40:59.378Z,2.53
2023-04-23T00:43:26.363Z,3.05
2023-04-23T00:45:53.104Z,5.03
2023-04-23T00:48:20.593Z,2.50
2023-04-23T00:50:47.222Z,2.83
2023-04-23T00:53:14.022Z,2.63
2023-04-23T00:55:40.818Z,3.10
2023-04-23T00:58:07.725Z,2.53
2023-04-23T01:00:43.521Z,2.45
2023-04-23T01:03:10.699Z,3.40
2023-04-23T01:05:37.522Z,2.80
2023-04-23T01:08:04.559Z,2.08
2023-04-23T01:10:32.672Z,4.90
2023-04-23T01:12:59.787Z,3.35
2023-04-23T01:15:26.747Z,4.45
2023-04-23T01:17:53.686Z,2.35
2023-04-23T01:20:20.454Z,2.47
2023-04-23T01:22:47.172Z,2.75
2023-04-23T01:25:14.182Z,2.92
2023-04-23T01:27:41.661Z,2.90
2023-04-23T01:30:08.789Z,2.10
2023-04-23T01:32:35.988Z,1.73
2023-04-23T01:35:04.706Z,2.28
2023-04-23T01:37:32.660Z,2.13
2023-04-23T01:39:59.507Z,2.80
2023-04-23T01:42:26.140Z,4.03
2023-04-23T01:44:53.548Z,3.65
2023-04-23T01:47:20.761Z,2.72
2023-04-23T01:49:47.484Z,3.40
2023-04-23T01:52:14.544Z,2.42
2023-04-23T01:54:41.359Z,3.28
2023-04-23T01:57:09.674Z,4.78
2023-04-23T01:59:37.624Z,3.38
2023-04-23T02:02:04.476Z,3.00
2023-04-23T02:04:31.650Z,5.18
2023-04-23T02:06:58.350Z,2.80
2023-04-23T02:09:25.318Z,3.38
2023-04-23T02:11:52.113Z,2.45
2023-04-23T02:14:18.755Z,2.28
2023-04-23T02:16:47.560Z,2.65
2023-04-23T02:19:16.580Z,3.22
2023-04-23T02:21:43.203Z,2.55
2023-04-23T02:24:09.919Z,3.28
2023-04-23T02:26:36.915Z,3.45
2023-04-23T02:29:03.534Z,2.35
2023-04-23T02:31:30.256Z,2.97
2023-04-23T02:33:58.023Z,4.13
2023-04-23T02:36:24.584Z,2.53
2023-04-23T02:38:51.386Z,2.95
2023-04-23T02:41:18.146Z,2.78
2023-04-23T02:43:44.755Z,3.17
2023-04-23T02:46:11.341Z,2.65
2023-04-23T02:48:40.739Z,3.38
2023-04-23T02:51:10.848Z,3.42
2023-04-23T02:53:37.649Z,4.10
2023-04-23T02:56:04.898Z,2.90
2023-04-23T02:58:32.002Z,2.88
2023-04-23T03:01:01.604Z,2.42
2023-04-23T03:03:32.069Z,3.20
2023-04-23T03:06:01.937Z,2.33
2023-04-23T03:08:28.582Z,3.17
2023-04-23T03:10:55.470Z,3.45
2023-04-23T03:13:22.360Z,2.53
2023-04-23T03:15:52.638Z,3.33
2023-04-23T03:18:19.735Z,2.65
2023-04-23T03:20:50.241Z,3.25
2023-04-23T03:23:17.874Z,3.67
2023-04-23T03:25:46.110Z,3.05
2023-04-23T03:28:12.785Z,2.85
2023-04-23T03:30:39.760Z,2.75
2023-04-23T03:33:06.433Z,3.22
2023-04-23T03:35:33.178Z,2.50
2023-04-23T03:38:01.717Z,3.97
2023-04-23T03:40:28.463Z,2.30
2023-04-23T03:42:59.176Z,2.88
2023-04-23T03:45:42.269Z,2.83
2023-04-23T03:48:10.237Z,4.10
2023-04-23T03:50:40.461Z,3.72
2023-04-23T03:53:27.330Z,1.98
2023-04-23T03:56:12.651Z,2.80
2023-04-23T03:58:48.206Z,3.17
2023-04-23T04:01:14.805Z,2.60
2023-04-23T04:03:41.557Z,2.72
2023-04-23T04:06:08.613Z,2.58
2023-04-23T04:08:35.320Z,1.80
2023-04-23T04:11:01.894Z,2.80
2023-04-23T04:13:28.482Z,2.05
2023-04-23T04:15:55.099Z,2.28
2023-04-23T04:18:21.691Z,2.53
2023-04-23T04:20:48.256Z,3.17
2023-04-23T04:23:14.879Z,2.38
2023-04-23T04:25:42.160Z,2.20
2023-04-23T04:28:11.611Z,2.10
2023-04-23T04:30:39.472Z,2.88
2023-04-23T04:33:06.101Z,2.80
2023-04-23T04:35:32.702Z,2.35
2023-04-23T04:37:59.942Z,2.13
2023-04-23T04:40:28.585Z,2.03
2023-04-23T04:42:55.228Z,3.30
2023-04-23T04:45:22.056Z,1.23
2023-04-23T04:47:48.658Z,2.05
2023-04-23T04:50:15.211Z,2.22
2023-04-23T04:52:41.825Z,2.50
2023-04-23T04:55:08.844Z,2.20
2023-04-23T04:57:36.486Z,2.50
2023-04-23T05:00:22.685Z,2.85
2023-04-23T05:02:50.937Z,3.22
2023-04-23T05:05:19.183Z,3.97
2023-04-23T05:07:46.037Z,3.13
2023-04-23T05:10:13.796Z,2.20
2023-04-23T05:12:43.220Z,3.13
2023-04-23T05:15:13.331Z,2.55
2023-04-23T05:17:41.275Z,3.28
2023-04-23T05:20:12.627Z,3.05
2023-04-23T05:22:41.562Z,2.80
2023-04-23T05:25:09.542Z,5.20
2023-04-23T05:27:36.177Z,2.95
2023-04-23T05:30:04.536Z,2.95
2023-04-23T05:32:31.613Z,2.65
2023-04-23T05:34:59.977Z,3.42
2023-04-23T05:37:26.683Z,2.67
2023-04-23T05:39:53.228Z,2.35
2023-04-23T05:42:19.899Z,2.80
2023-04-23T05:44:46.584Z,3.33
2023-04-23T05:47:14.540Z,2.92
2023-04-23T05:49:41.629Z,2.03
2023-04-23T05:52:08.764Z,2.92
2023-04-23T05:54:35.571Z,3.10
2023-04-23T05:57:02.887Z,2.30
2023-04-23T05:59:29.541Z,2.58
2023-04-23T06:01:56.178Z,2.58
2023-04-23T06:04:23.037Z,2.78
2023-04-23T06:06:49.975Z,2.60
2023-04-23T06:09:16.531Z,2.30
2023-04-23T06:11:43.925Z,2.00
2023-04-23T06:14:10.765Z,2.90
2023-04-23T06:16:37.364Z,1.63
2023-04-23T06:19:04.352Z,2.67
2023-04-23T06:21:31.351Z,1.85
2023-04-23T06:23:57.969Z,1.65
2023-04-23T06:26:24.548Z,2.03
2023-04-23T06:28:53.669Z,1.50
2023-04-23T06:31:28.222Z,2.05
2023-04-23T06:33:55.029Z,1.63
2023-04-23T06:36:21.632Z,1.58
2023-04-23T06:38:48.212Z,2.13
2023-04-23T06:41:15.608Z,3.00
2023-04-23T06:43:42.575Z,1.35
2023-04-23T06:46:30.640Z,1.65
2023-04-23T06:48:57.239Z,2.08
2023-04-23T06:51:25.816Z,1.55
2023-04-23T06:53:52.430Z,2.08
2023-04-23T06:56:19.104Z,2.15
2023-04-23T06:58:45.661Z,1.67
2023-04-23T07:01:18.160Z,1.92
2023-04-23T07:03:48.836Z,1.67
2023-04-23T07:08:45.646Z,1.58
2023-04-23T07:11:12.349Z,1.27
2023-04-23T07:13:39.698Z,0.80
2023-04-23T07:16:07.043Z,2.38
2023-04-23T07:18:33.598Z,1.45
2023-04-23T07:21:00.269Z,1.25
2023-04-23T07:23:26.930Z,1.15
2023-04-23T07:25:53.540Z,0.82
2023-04-23T07:28:20.143Z,1.27
2023-04-23T07:30:46.762Z,1.10
2023-04-23T07:33:13.798Z,0.90
2023-04-23T07:35:40.532Z,1.02
2023-04-23T07:38:07.113Z,0.80
2023-04-23T07:40:33.783Z,1.70
2023-04-23T07:43:01.068Z,1.02
2023-04-23T07:45:27.730Z,1.80
2023-04-23T07:47:54.299Z,1.17
2023-04-23T07:50:21.012Z,0.68
2023-04-23T07:52:47.647Z,1.30
2023-04-23T07:55:14.259Z,1.25
2023-04-23T07:57:40.910Z,0.90
2023-04-23T08:00:11.306Z,1.92
2023-04-23T08:02:40.760Z,0.90
2023-04-23T08:05:08.200Z,0.90
2023-04-23T08:07:35.102Z,0.88
2023-04-23T08:10:06.103Z,0.98
2023-04-23T08:12:35.757Z,1.25
2023-04-23T08:15:03.435Z,0.73
2023-04-23T08:17:37.174Z,0.40
2023-04-23T08:20:06.761Z,0.52
2023-04-23T08:22:33.492Z,0.70
2023-04-23T08:25:00.127Z,0.73
2023-04-23T08:27:26.828Z,1.58
2023-04-23T08:29:53.391Z,0.98
2023-04-23T08:32:20.477Z,0.77
2023-04-23T08:34:47.519Z,0.82
2023-04-23T08:37:27.273Z,0.60
2023-04-23T08:39:57.288Z,0.90
2023-04-23T08:42:33.808Z,1.75
2023-04-23T08:45:01.958Z,1.23
2023-04-23T08:47:30.254Z,0.43
2023-04-23T08:49:59.146Z,0.63
2023-04-23T08:52:29.340Z,0.60
2023-04-23T08:55:01.227Z,0.40
2023-04-23T08:57:30.714Z,0.95
2023-04-23T08:59:58.297Z,0.60
2023-04-23T09:02:25.520Z,1.15
2023-04-23T09:04:56.170Z,0.30
2023-04-23T09:07:23.332Z,0.90
2023-04-23T09:09:50.119Z,0.63
2023-04-23T09:12:16.952Z,0.85
2023-04-23T09:14:44.804Z,1.75
2023-04-23T09:17:11.679Z,1.13
2023-04-23T09:19:40.139Z,0.30
2023-04-23T09:22:07.724Z,0.60
2023-04-23T09:24:34.981Z,0.60
2023-04-23T09:27:01.610Z,0.40
2023-04-23T09:29:28.499Z,0.50
2023-04-23T09:31:56.716Z,0.20
2023-04-23T09:34:24.854Z,0.50
2023-04-23T09:36:53.461Z,0.13
2023-04-23T09:39:22.815Z,0.68
2023-04-23T09:41:52.086Z,0.20
2023-04-23T09:44:22.328Z,0.30
2023-04-23T09:46:49.396Z,0.40
2023-04-23T09:49:16.205Z,0.82
2023-04-23T09:51:46.117Z,0.50
2023-04-23T09:54:18.652Z,0.17
2023-04-23T09:56:50.322Z,0.35
2023-04-23T09:59:26.722Z,0.20
2023-04-23T10:02:04.811Z,0.15
2023-04-23T10:04:32.181Z,0.10
2023-04-23T10:07:17.473Z,0.45
2023-04-23T10:09:46.770Z,0.10
2023-04-23T10:14:45.982Z,0.45
2023-04-23T10:17:13.052Z,0.10
2023-04-23T10:19:43.323Z,0.20
2023-04-23T10:24:55.225Z,0.30
2023-04-23T10:29:53.460Z,0.65
2023-04-23T10:32:21.373Z,0.10
2023-04-23T10:34:48.458Z,0.98
2023-04-23T10:37:16.434Z,0.15
2023-04-23T10:39:44.756Z,0.30
2023-04-23T10:42:13.532Z,0.82
2023-04-23T10:47:15.832Z,0.15
2023-04-23T10:49:44.328Z,1.05
2023-04-23T10:52:20.306Z,0.40
2023-04-23T10:54:50.679Z,0.20
2023-04-23T10:57:17.337Z,0.30
2023-04-23T10:59:56.348Z,0.17
2023-04-23T11:02:24.451Z,0.30
2023-04-23T11:04:58.879Z,0.20
2023-04-23T11:07:31.045Z,0.47
2023-04-23T11:10:11.781Z,0.40
2023-04-23T11:12:39.997Z,0.20
2023-04-23T11:15:14.439Z,0.55
2023-04-23T11:17:44.171Z,0.25
2023-04-23T11:20:14.056Z,0.40
2023-04-23T11:22:44.612Z,1.35
2023-04-23T11:25:13.788Z,1.98
2023-04-23T11:27:42.361Z,0.50
2023-04-23T11:30:19.878Z,0.28
2023-04-23T11:32:51.457Z,0.45
2023-04-23T11:35:23.169Z,0.20
2023-04-23T11:37:50.105Z,0.20
2023-04-23T11:40:19.581Z,0.35
2023-04-23T11:42:51.001Z,1.05
2023-04-23T11:45:28.824Z,0.40
2023-04-23T11:47:57.674Z,0.20
2023-04-23T11:50:33.682Z,0.20
2023-04-23T11:53:08.848Z,0.80
2023-04-23T11:55:35.855Z,0.50
2023-04-23T11:58:03.172Z,0.10
2023-04-23T12:00:29.845Z,0.30
2023-04-23T12:02:59.744Z,0.20
2023-04-23T12:05:32.789Z,0.13
2023-04-23T12:08:16.225Z,0.20
2023-04-23T12:10:52.911Z,0.13
2023-04-23T12:13:23.451Z,1.17
2023-04-23T12:18:18.934Z,0.50
2023-04-23T12:20:46.229Z,0.52
2023-04-23T12:23:13.065Z,1.23
2023-04-23T12:25:40.807Z,0.82
2023-04-23T12:28:07.700Z,0.28
2023-04-23T12:30:43.445Z,0.30
2023-04-23T12:33:12.064Z,0.45
2023-04-23T12:35:51.561Z,0.17
2023-04-23T12:38:26.624Z,0.35
2023-04-23T12:40:59.290Z,0.40
2023-04-23T12:43:27.069Z,1.75
2023-04-23T12:45:56.889Z,0.17
2023-04-23T12:48:23.476Z,0.35
2023-04-23T12:50:50.285Z,0.17
2023-04-23T12:53:18.586Z,3.05
2023-04-23T12:55:45.884Z,0.52
2023-04-23T12:58:12.846Z,0.88
2023-04-23T13:00:39.473Z,0.40
2023-04-23T13:03:06.243Z,0.28
2023-04-23T13:05:32.939Z,1.55
2023-04-23T13:07:59.555Z,0.13
2023-04-23T13:10:26.225Z,0.43
2023-04-23T13:12:52.834Z,0.25
2023-04-23T13:15:20.299Z,0.22
2023-04-23T13:17:47.200Z,0.20
2023-04-23T13:20:13.926Z,0.50
2023-04-23T13:22:40.526Z,0.30
2023-04-23T13:25:07.386Z,0.20
2023-04-23T13:27:33.986Z,0.20
2023-04-23T13:30:00.557Z,0.10
2023-04-23T13:32:31.834Z,0.30
2023-04-23T13:35:01.816Z,0.30
2023-04-23T13:37:31.315Z,0.25
2023-04-23T13:39:57.889Z,0.10
2023-04-23T13:42:24.494Z,0.15
2023-04-23T13:44:51.218Z,0.25
2023-04-23T13:47:18.005Z,0.55
2023-04-23T13:49:44.710Z,0.40
2023-04-23T13:52:11.450Z,0.43
2023-04-23T13:54:39.182Z,0.30
2023-04-23T13:57:06.028Z,0.40
2023-04-23T13:59:32.646Z,0.30
2023-04-23T14:01:59.300Z,0.20
2023-04-23T14:04:27.035Z,0.38
2023-04-23T14:06:53.786Z,0.20
2023-04-23T14:09:22.327Z,0.30
2023-04-23T14:11:49.283Z,0.47
2023-04-23T14:14:16.568Z,0.30
2023-04-23T14:16:44.427Z,0.40
2023-04-23T14:19:11.119Z,0.35
2023-04-23T14:21:38.023Z,0.20
2023-04-23T14:24:26.683Z,0.30
2023-04-23T14:26:53.349Z,0.55
2023-04-23T14:29:22.978Z,0.80
2023-04-23T14:31:49.945Z,0.30
2023-04-23T14:34:16.543Z,0.85
2023-04-23T14:36:43.257Z,0.90
2023-04-23T14:39:10.804Z,0.30
2023-04-23T14:41:37.458Z,0.45
2023-04-23T14:44:04.046Z,0.45
2023-04-23T14:46:31.038Z,0.40
2023-04-23T14:48:57.818Z,0.88
2023-04-23T14:51:24.487Z,0.68
2023-04-23T14:53:51.368Z,0.20
2023-04-23T14:56:18.263Z,0.47
2023-04-23T14:58:44.885Z,0.50
2023-04-23T15:01:11.820Z,1.23
2023-04-23T15:03:38.657Z,0.40
2023-04-23T15:06:07.738Z,0.63
2023-04-23T15:08:34.417Z,0.38
2023-04-23T15:11:01.090Z,1.05
2023-04-23T15:13:43.878Z,0.32
2023-04-23T15:16:48.658Z,0.20
2023-04-23T15:19:19.507Z,0.40
2023-04-23T15:21:46.963Z,0.40
2023-04-23T15:24:14.132Z,0.60
2023-04-23T15:26:40.898Z,0.68
2023-04-23T15:29:11.704Z,0.68
2023-04-23T15:31:38.876Z,0.80
2023-04-23T15:34:08.267Z,1.58
2023-04-23T15:36:38.049Z,0.57
2023-04-23T15:39:05.154Z,0.60
2023-04-23T15:41:31.962Z,0.73
2023-04-23T15:43:58.706Z,1.23
2023-04-23T15:46:25.373Z,0.75
2023-04-23T15:48:51.984Z,1.58
2023-04-23T15:51:18.557Z,0.52
2023-04-23T15:53:45.253Z,0.98
2023-04-23T15:56:11.814Z,1.50
2023-04-23T15:58:38.506Z,1.08
2023-04-23T16:01:07.252Z,1.42
2023-04-23T16:03:34.475Z,1.63
2023-04-23T16:06:01.747Z,1.42
2023-04-23T16:08:28.698Z,1.95
2023-04-23T16:10:57.006Z,1.40
2023-04-23T16:13:24.674Z,1.20
2023-04-23T16:15:51.337Z,1.13
2023-04-23T16:18:18.019Z,1.08
2023-04-23T16:20:44.764Z,1.40
2023-04-23T16:23:11.540Z,1.50
2023-04-23T16:25:38.149Z,1.60
2023-04-23T16:28:05.198Z,2.22
2023-04-23T16:30:32.087Z,1.23
2023-04-23T16:32:58.944Z,1.38
2023-04-23T16:35:25.568Z,1.52
2023-04-23T16:37:52.286Z,0.82
2023-04-23T16:40:19.341Z,2.03
2023-04-23T16:42:48.438Z,1.55
2023-04-23T16:45:15.280Z,1.13
2023-04-23T16:47:43.573Z,1.20
2023-04-23T16:50:10.694Z,1.55
2023-04-23T16:52:37.445Z,1.15
2023-04-23T16:55:05.602Z,1.05
2023-04-23T16:57:32.752Z,1.15
2023-04-23T16:59:59.565Z,1.50
2023-04-23T17:02:26.710Z,1.33
2023-04-23T17:04:53.539Z,1.63
2023-04-23T17:07:20.350Z,1.10
2023-04-23T17:09:46.991Z,1.38
2023-04-23T17:12:13.741Z,1.00
2023-04-23T17:14:40.443Z,1.40
2023-04-23T17:17:07.180Z,1.17
2023-04-23T17:19:34.601Z,1.58
2023-04-23T17:22:01.507Z,1.63
2023-04-23T17:24:28.117Z,1.58
2023-04-23T17:26:54.699Z,1.20
2023-04-23T17:29:21.325Z,1.25
2023-04-23T17:31:47.939Z,1.98
2023-04-23T17:34:14.621Z,2.50
2023-04-23T17:36:41.445Z,1.83
2023-04-23T17:39:08.141Z,2.05
2023-04-23T17:41:34.800Z,2.35
2023-04-23T17:44:01.586Z,1.55
2023-04-23T17:46:28.377Z,2.80
2023-04-23T17:48:54.968Z,1.38
2023-04-23T17:51:21.705Z,1.05
2023-04-23T17:53:49.971Z,1.02
2023-04-23T17:56:16.890Z,0.82
2023-04-23T17:58:43.925Z,1.02
2023-04-23T18:01:11.358Z,1.38
2023-04-23T18:03:38.349Z,1.42
2023-04-23T18:06:05.514Z,0.80
2023-04-23T18:08:32.179Z,1.58
2023-04-23T18:10:59.331Z,1.27
2023-04-23T18:13:26.261Z,1.30
2023-04-23T18:15:52.931Z,1.05
2023-04-23T18:18:19.633Z,1.00
2023-04-23T18:20:47.536Z,1.27
2023-04-23T18:23:14.441Z,0.73
2023-04-23T18:25:41.927Z,0.88
2023-04-23T18:28:08.624Z,1.23
2023-04-23T18:30:37.166Z,1.27
2023-04-23T18:33:13.064Z,1.20
2023-04-23T18:35:45.924Z,2.33
2023-04-23T18:38:25.465Z,1.30
2023-04-23T18:40:52.116Z,2.33
2023-04-23T18:43:19.033Z,1.60
2023-04-23T18:45:45.746Z,1.15
2023-04-23T18:48:34.182Z,1.00
2023-04-23T18:51:05.937Z,1.13
2023-04-23T18:53:32.628Z,1.70
2023-04-23T18:55:59.193Z,1.10
2023-04-23T18:58:25.899Z,0.70
2023-04-23T19:00:52.500Z,1.00
2023-04-23T19:03:26.933Z,0.60
2023-04-23T19:05:54.556Z,0.77
2023-04-23T19:08:22.699Z,1.05
2023-04-23T19:10:49.297Z,0.88
2023-04-23T19:13:16.040Z,0.80
2023-04-23T19:15:42.688Z,0.65
2023-04-23T19:18:09.424Z,1.40
2023-04-23T19:20:37.148Z,1.05
2023-04-23T19:23:04.901Z,0.45
2023-04-23T19:25:32.249Z,0.80
2023-04-23T19:27:58.820Z,0.88
2023-04-23T19:30:25.480Z,1.85
2023-04-23T19:32:52.173Z,1.02
2023-04-23T19:35:18.985Z,1.33
2023-04-23T19:37:46.212Z,1.02
2023-04-23T19:40:14.709Z,1.13
2023-04-23T19:42:41.351Z,1.00
2023-04-23T19:45:08.427Z,0.73
2023-04-23T19:47:38.946Z,1.90
2023-04-23T19:50:07.293Z,0.43
2023-04-23T19:52:34.423Z,1.25
2023-04-23T19:55:01.031Z,1.05
2023-04-23T19:57:28.226Z,0.90
2023-04-23T19:59:54.891Z,0.88
2023-04-23T20:02:21.603Z,0.47
2023-04-23T20:04:48.304Z,0.85
2023-04-23T20:07:15.085Z,1.05
2023-04-23T20:09:42.039Z,0.98
2023-04-23T20:12:08.903Z,0.77
2023-04-23T20:14:35.625Z,0.90
2023-04-23T20:17:02.390Z,1.25
2023-04-23T20:19:30.728Z,1.25
2023-04-23T20:21:57.373Z,0.93
2023-04-23T20:24:23.944Z,0.80
2023-04-23T20:26:50.895Z,1.67
2023-04-23T20:29:17.767Z,1.23
2023-04-23T20:31:48.709Z,1.08
2023-04-23T20:34:16.332Z,1.08
2023-04-23T20:36:43.225Z,1.05
2023-04-23T20:39:10.914Z,1.35
2023-04-23T20:41:37.593Z,0.77
2023-04-23T20:44:08.943Z,1.10
2023-04-23T20:46:36.778Z,1.10
2023-04-23T20:49:04.113Z,3.97
2023-04-23T20:51:33.989Z,1.15
2023-04-23T20:54:01.805Z,1.17
2023-04-23T20:56:28.676Z,0.77
2023-04-23T20:58:57.338Z,1.23
2023-04-23T21:01:25.312Z,1.13
2023-04-23T21:03:53.389Z,0.75
2023-04-23T21:06:21.072Z,1.05
2023-04-23T21:08:47.878Z,0.60
2023-04-23T21:11:16.300Z,1.00
2023-04-23T21:13:43.125Z,0.93
2023-04-23T21:16:11.474Z,1.25
2023-04-23T21:18:39.346Z,2.15
2023-04-23T21:21:06.148Z,0.80
2023-04-23T21:23:32.861Z,2.55
2023-04-23T21:25:59.505Z,1.88
2023-04-23T21:28:26.138Z,1.55
2023-04-23T21:30:55.493Z,0.73
2023-04-23T21:33:24.576Z,1.00
2023-04-23T21:35:53.976Z,1.25
2023-04-23T21:38:21.420Z,2.97
2023-04-23T21:40:48.253Z,1.38
2023-04-23T21:43:14.931Z,1.83
2023-04-23T21:45:41.550Z,1.83
2023-04-23T21:48:08.299Z,1.70
2023-04-23T21:50:35.077Z,1.52
2023-04-23T21:53:03.178Z,1.70
2023-04-23T21:55:33.861Z,1.75
2023-04-23T22:00:45.041Z,1.63
2023-04-23T22:03:13.611Z,1.20
2023-04-23T22:05:43.170Z,2.28
2023-04-23T22:08:09.821Z,3.75
2023-04-23T22:10:42.763Z,2.13
2023-04-23T22:13:09.983Z,2.60
2023-04-23T22:15:36.869Z,1.70
2023-04-23T22:18:03.608Z,1.83
2023-04-23T22:20:30.638Z,1.92
2023-04-23T22:22:57.320Z,2.10
2023-04-23T22:25:24.216Z,2.90
2023-04-23T22:27:50.853Z,2.15
2023-04-23T22:30:17.511Z,3.83
2023-04-23T22:32:44.444Z,3.22
2023-04-23T22:35:11.120Z,3.47
2023-04-23T22:37:38.187Z,2.13
2023-04-23T22:40:07.865Z,2.47
2023-04-23T22:42:34.566Z,2.28
2023-04-23T22:45:01.686Z,3.10
2023-04-23T22:47:28.321Z,4.38
2023-04-23T22:49:55.234Z,3.63
2023-04-23T22:52:21.995Z,3.20
2023-04-23T22:54:48.671Z,2.10
2023-04-23T22:57:15.456Z,2.63
2023-04-23T22:59:42.187Z,2.78
2023-04-23T23:02:09.048Z,2.10
2023-04-23T23:04:38.476Z,2.60
2023-04-23T23:07:06.339Z,1.77
2023-04-23T23:09:33.138Z,4.57
2023-04-23T23:12:04.384Z,2.08
2023-04-23T23:14:33.118Z,1.65
2023-04-23T23:16:59.809Z,1.45
2023-04-23T23:19:27.265Z,1.55
2023-04-23T23:21:54.057Z,1.55
2023-04-23T23:24:22.149Z,1.33
2023-04-23T23:26:49.372Z,1.65
2023-04-23T23:29:16.498Z,1.40
2023-04-23T23:31:43.465Z,1.27
2023-04-23T23:34:10.225Z,1.20
2023-04-23T23:36:36.877Z,2.50
2023-04-23T23:39:04.379Z,2.30
2023-04-23T23:41:30.953Z,2.40
2023-04-23T23:43:57.529Z,1.60
2023-04-23T23:46:25.463Z,2.38
2023-04-23T23:48:52.134Z,2.25
2023-04-23T23:51:18.997Z,1.25
2023-04-23T23:53:45.737Z,1.63
2023-04-23T23:56:12.346Z,3.28
2023-04-23T23:58:38.906Z,1.17
